Time;durP1;ratioP1;P1;durP2;ratioP2;P2;SDS_P1;SDS_P2;PMS_P1;PMS_P2;Temp;Humidity;BMP_temperature;BMP_pressure;BME280_temperature;BME280_humidity;BME280_pressure;Samples;Min_cycle;Max_cycle;Signal;HPM_P1;HPM_P2
2023/11/13 00:02:02;;;;;;;2.90;1.23;;;;;;;6.82;100.00;100499.00;5091223;28;20020;-71
2023/11/13 00:04:28;;;;;;;5.65;1.10;;;;;;;6.76;100.00;100499.47;5089340;28;20093;-70
2023/11/13 00:06:54;;;;;;;2.15;0.93;;;;;;;6.77;100.00;100503.69;5092891;28;20024;-70
2023/11/13 00:09:19;;;;;;;3.35;0.80;;;;;;;6.76;100.00;100489.09;5091297;28;20042;-70
2023/11/13 00:11:45;;;;;;;4.25;1.15;;;;;;;6.75;100.00;100477.09;5088519;28;20036;-70
2023/11/13 00:14:11;;;;;;;3.95;1.23;;;;;;;6.74;100.00;100472.88;5091716;28;20126;-71
2023/11/13 00:16:36;;;;;;;2.60;1.30;;;;;;;6.71;100.00;100474.88;5090889;28;20047;-71
2023/11/13 00:19:03;;;;;;;2.78;0.98;;;;;;;6.66;100.00;100490.75;5090084;28;20028;-71
2023/11/13 00:21:29;;;;;;;3.92;1.63;;;;;;;6.64;100.00;100496.06;5088813;28;20032;-71
2023/11/13 00:23:57;;;;;;;6.43;2.13;;;;;;;6.66;100.00;100495.94;5091524;28;20031;-71
2023/11/13 00:26:23;;;;;;;4.85;1.42;;;;;;;6.66;100.00;100508.88;5091434;28;20047;-70
2023/11/13 00:28:49;;;;;;;3.85;1.08;;;;;;;6.66;100.00;100522.66;5089446;28;20028;-71
2023/11/13 00:31:14;;;;;;;1.90;0.60;;;;;;;6.64;100.00;100511.59;5095294;28;20447;-71
2023/11/13 00:33:40;;;;;;;1.52;0.70;;;;;;;6.61;100.00;100505.84;5091514;28;20024;-70
2023/11/13 00:36:06;;;;;;;2.25;1.15;;;;;;;6.59;100.00;100515.50;5098052;28;20140;-70
2023/11/13 00:38:32;;;;;;;3.58;0.95;;;;;;;6.59;100.00;100515.50;5093479;28;20055;-70
2023/11/13 00:40:58;;;;;;;4.30;0.88;;;;;;;6.56;100.00;100513.16;5092114;28;20091;-70
2023/11/13 00:43:24;;;;;;;2.60;0.68;;;;;;;6.51;100.00;100499.72;5092421;28;20032;-70
2023/11/13 00:45:50;;;;;;;2.47;0.63;;;;;;;6.51;100.00;100507.50;5092208;28;20062;-70
2023/11/13 00:48:15;;;;;;;4.40;0.90;;;;;;;6.50;100.00;100500.66;5091378;28;20118;-70
2023/11/13 00:50:40;;;;;;;1.52;0.60;;;;;;;6.45;100.00;100493.25;5091434;28;20118;-70
2023/11/13 00:53:06;;;;;;;3.28;0.80;;;;;;;6.40;100.00;100508.31;5092464;28;20028;-70
2023/11/13 00:55:31;;;;;;;5.10;1.15;;;;;;;6.42;100.00;100508.19;5092015;28;20492;-70
2023/11/13 00:57:57;;;;;;;3.75;1.00;;;;;;;6.42;100.00;100503.00;5092111;28;20395;-70
2023/11/13 01:00:22;;;;;;;2.45;0.75;;;;;;;6.40;100.00;100491.94;5087961;28;20506;-70
2023/11/13 01:02:48;;;;;;;2.47;0.75;;;;;;;6.39;100.00;100483.38;5089868;28;20027;-70
2023/11/13 01:05:13;;;;;;;3.72;0.82;;;;;;;6.38;100.00;100455.00;5090261;28;20036;-70
2023/11/13 01:07:39;;;;;;;2.78;1.00;;;;;;;6.37;100.00;100432.66;5087762;28;20039;-70
2023/11/13 01:10:05;;;;;;;3.78;0.63;;;;;;;6.32;100.00;100457.13;5091568;28;20038;-70
2023/11/13 01:12:31;;;;;;;2.28;0.80;;;;;;;6.30;100.00;100490.06;5090258;28;20086;-70
2023/11/13 01:14:57;;;;;;;3.65;0.80;;;;;;;6.31;100.00;100506.41;5090475;28;20364;-70
2023/11/13 01:17:23;;;;;;;4.72;0.85;;;;;;;6.31;100.00;100521.94;5089184;28;20024;-70
2023/11/13 01:19:48;;;;;;;5.20;0.95;;;;;;;6.28;100.00;100560.97;5088213;28;20031;-70
2023/11/13 01:22:14;;;;;;;1.75;0.73;;;;;;;6.22;100.00;100575.19;5090556;28;20048;-70
2023/11/13 01:24:39;;;;;;;2.45;0.77;;;;;;;6.14;100.00;100564.63;5089664;28;20060;-70
2023/11/13 01:27:05;;;;;;;5.30;0.63;;;;;;;6.11;100.00;100554.50;5089962;28;20100;-70
2023/11/13 01:29:30;;;;;;;3.08;0.60;;;;;;;6.08;100.00;100565.06;5089372;28;20058;-70
2023/11/13 01:31:56;;;;;;;3.90;1.20;;;;;;;6.02;100.00;100568.09;5090529;28;20028;-70
2023/11/13 01:34:21;;;;;;;3.70;1.10;;;;;;;5.93;100.00;100559.25;5090111;28;20028;-70
2023/11/13 01:36:47;;;;;;;2.33;0.73;;;;;;;5.87;100.00;100575.19;5088159;28;20547;-70
2023/11/13 01:39:12;;;;;;;4.75;0.90;;;;;;;5.84;100.00;100577.16;5089958;28;20036;-70
2023/11/13 01:41:39;;;;;;;3.05;0.75;;;;;;;5.86;100.00;100572.69;5090584;28;20495;-70
2023/11/13 01:44:08;;;;;;;2.53;0.98;;;;;;;5.89;100.00;100551.81;5089710;28;20105;-70
2023/11/13 01:46:34;;;;;;;4.15;0.80;;;;;;;5.91;100.00;100539.59;5089099;28;20090;-70
2023/11/13 01:49:00;;;;;;;4.15;0.98;;;;;;;5.87;100.00;100551.91;5089231;28;20023;-70
2023/11/13 01:51:26;;;;;;;2.85;0.80;;;;;;;5.89;100.00;100551.81;5089478;28;20435;-70
2023/11/13 01:53:53;;;;;;;1.55;0.57;;;;;;;5.87;100.00;100551.09;5088828;28;20038;-70
2023/11/13 01:56:21;;;;;;;2.78;0.55;;;;;;;5.89;100.00;100575.09;5088631;28;20122;-70
2023/11/13 01:58:47;;;;;;;2.20;0.68;;;;;;;5.90;100.00;100579.34;5090426;28;20044;-70
2023/11/13 02:01:13;;;;;;;4.60;0.93;;;;;;;5.91;100.00;100586.97;5089111;28;20023;-70
2023/11/13 02:03:40;;;;;;;3.92;0.93;;;;;;;5.94;100.00;100580.75;5085836;28;20115;-70
2023/11/13 02:06:06;;;;;;;3.63;1.05;;;;;;;5.97;100.00;100575.38;5089474;28;20550;-70
2023/11/13 02:08:32;;;;;;;2.80;0.70;;;;;;;5.96;100.00;100563.38;5093531;28;20036;-70
2023/11/13 02:11:03;;;;;;;1.75;0.70;;;;;;;5.99;100.00;100563.16;5092575;28;20069;-70
2023/11/13 02:13:29;;;;;;;2.03;0.70;;;;;;;5.96;100.00;100563.38;5088162;28;20154;-70
2023/11/13 02:15:55;;;;;;;2.55;0.90;;;;;;;5.92;100.00;100564.53;5087430;28;20852;-70
2023/11/13 02:18:20;;;;;;;3.80;0.93;;;;;;;5.86;100.00;100559.78;5089142;28;20036;-70
2023/11/13 02:20:45;;;;;;;2.08;0.80;;;;;;;5.83;100.00;100567.75;5088378;28;20048;-70
2023/11/13 02:23:17;;;;;;;1.83;0.52;;;;;;;5.78;100.00;100565.50;5088569;28;20161;-70
2023/11/13 02:25:55;;;;;;;1.85;0.77;;;;;;;5.74;100.00;100553.72;5089219;28;20032;-70
2023/11/13 02:28:21;;;;;;;1.55;0.68;;;;;;;5.71;100.00;100547.94;5087799;28;20063;-70
2023/11/13 02:30:47;;;;;;;3.50;1.23;;;;;;;5.72;100.00;100539.25;5099553;28;20445;-70
2023/11/13 02:33:12;;;;;;;3.53;0.80;;;;;;;5.73;100.00;100549.50;5100310;28;20378;-70
2023/11/13 02:35:37;;;;;;;1.40;0.57;;;;;;;5.68;100.00;100543.84;5098473;28;20067;-71
2023/11/13 02:38:03;;;;;;;3.83;0.80;;;;;;;5.66;100.00;100554.31;5090105;28;20032;-70
2023/11/13 02:40:29;;;;;;;3.63;0.95;;;;;;;5.67;100.00;100560.31;5096893;28;20065;-70
2023/11/13 02:42:54;;;;;;;2.63;0.65;;;;;;;5.65;100.00;100560.41;5099226;28;20035;-70
2023/11/13 02:45:20;;;;;;;3.05;1.00;;;;;;;5.63;100.00;100551.94;5094715;28;20089;-70
2023/11/13 02:47:46;;;;;;;4.10;1.17;;;;;;;5.64;100.00;100547.59;5090497;28;20036;-70
2023/11/13 02:50:11;;;;;;;2.15;0.93;;;;;;;5.58;100.00;100559.19;5089817;28;20388;-70
2023/11/13 02:52:37;;;;;;;2.50;0.98;;;;;;;5.53;100.00;100561.28;5090956;28;20035;-70
2023/11/13 02:55:03;;;;;;;2.08;0.95;;;;;;;5.52;100.00;100569.97;5099148;28;20035;-71
2023/11/13 02:57:28;;;;;;;4.47;1.15;;;;;;;5.51;100.00;100565.75;5094930;28;20024;-70
2023/11/13 02:59:54;;;;;;;2.60;1.08;;;;;;;5.51;100.00;100573.50;5087992;28;20120;-70
2023/11/13 03:02:19;;;;;;;4.60;0.80;;;;;;;5.49;100.00;100571.94;5087706;28;20028;-70
2023/11/13 03:04:45;;;;;;;1.90;0.80;;;;;;;5.48;100.00;100575.47;5083856;28;20038;-70
2023/11/13 03:07:10;;;;;;;3.00;0.77;;;;;;;5.43;100.00;100567.22;5087875;28;20031;-70
2023/11/13 03:09:36;;;;;;;2.88;0.68;;;;;;;5.41;100.00;100566.50;5084208;28;20032;-70
2023/11/13 03:12:02;;;;;;;4.20;0.80;;;;;;;5.41;100.00;100589.75;5088736;28;20500;-70
2023/11/13 03:14:28;;;;;;;4.35;1.25;;;;;;;5.42;100.00;100575.91;5088268;28;20033;-70
2023/11/13 03:16:53;;;;;;;3.15;1.13;;;;;;;5.42;100.00;100578.50;5088751;28;20073;-70
2023/11/13 03:19:21;;;;;;;1.77;0.70;;;;;;;5.43;100.00;100575.78;5088614;28;20031;-70
2023/11/13 03:21:47;;;;;;;1.50;0.80;;;;;;;5.47;100.00;100573.81;5089494;28;20048;-70
2023/11/13 03:24:13;;;;;;;3.40;1.02;;;;;;;5.47;100.00;100577.22;5087029;28;20487;-70
2023/11/13 03:26:38;;;;;;;4.45;1.10;;;;;;;5.47;100.00;100579.81;5087438;28;20042;-69
2023/11/13 03:29:04;;;;;;;4.65;1.20;;;;;;;5.47;100.00;100561.72;5088097;28;20467;-70
2023/11/13 03:31:30;;;;;;;2.90;0.60;;;;;;;5.44;100.00;100553.38;5090364;28;20055;-70
2023/11/13 03:33:55;;;;;;;3.58;1.00;;;;;;;5.39;100.00;100560.63;5092350;28;20055;-71
2023/11/13 03:36:21;;;;;;;5.22;0.80;;;;;;;5.40;100.00;100562.25;5093800;28;20550;-70
2023/11/13 03:38:46;;;;;;;3.53;0.90;;;;;;;5.41;100.00;100572.50;5090339;28;20483;-70
2023/11/13 03:41:12;;;;;;;1.50;0.65;;;;;;;5.42;100.00;100587.06;5092453;28;20036;-70
2023/11/13 03:43:37;;;;;;;1.88;0.68;;;;;;;5.41;100.00;100593.16;5091854;28;20028;-70
2023/11/13 03:46:03;;;;;;;2.83;0.82;;;;;;;5.36;100.00;100586.66;5092497;28;20039;-70
2023/11/13 03:48:29;;;;;;;3.00;1.13;;;;;;;5.35;100.00;100562.59;5094055;28;20027;-70
2023/11/13 03:50:54;;;;;;;1.50;0.60;;;;;;;5.42;100.00;100560.41;5094651;28;20036;-70
2023/11/13 03:53:20;;;;;;;2.10;0.90;;;;;;;5.42;100.00;100573.31;5092838;28;20481;-70
2023/11/13 03:55:46;;;;;;;2.80;1.02;;;;;;;5.40;100.00;100577.78;5090289;28;20070;-70
2023/11/13 03:58:12;;;;;;;5.93;1.30;;;;;;;5.34;100.00;100566.94;5086605;28;20027;-70
2023/11/13 04:00:37;;;;;;;2.25;0.73;;;;;;;5.31;100.00;100561.16;5089993;28;20107;-70
2023/11/13 04:03:03;;;;;;;2.85;0.73;;;;;;;5.28;100.00;100569.94;5091046;28;20028;-70
2023/11/13 04:05:29;;;;;;;4.75;1.00;;;;;;;5.31;100.00;100567.16;5091150;28;20050;-70
2023/11/13 04:07:55;;;;;;;2.20;0.60;;;;;;;5.33;100.00;100572.22;5091582;28;20058;-70
2023/11/13 04:10:21;;;;;;;2.38;0.65;;;;;;;5.34;100.00;100560.94;5089513;28;20511;-70
2023/11/13 04:12:47;;;;;;;2.08;0.93;;;;;;;5.31;100.00;100587.00;5094636;28;20127;-70
2023/11/13 04:15:13;;;;;;;8.90;1.00;;;;;;;5.30;100.00;100585.34;5091627;28;20048;-70
2023/11/13 04:17:39;;;;;;;1.73;0.73;;;;;;;5.28;100.00;100579.44;5090361;28;20110;-70
2023/11/13 04:20:06;;;;;;;2.72;0.90;;;;;;;5.28;100.00;100574.28;5091299;28;20028;-70
2023/11/13 04:22:32;;;;;;;2.50;1.20;;;;;;;5.18;100.00;100587.03;5090544;28;20048;-70
2023/11/13 04:25:01;;;;;;;3.08;0.70;;;;;;;5.15;100.00;100596.78;5091108;28;20047;-70
2023/11/13 04:27:27;;;;;;;2.05;0.68;;;;;;;5.11;100.00;100598.72;5087307;28;20036;-70
2023/11/13 04:29:52;;;;;;;2.70;0.95;;;;;;;5.09;100.00;100612.69;5090974;28;20051;-70
2023/11/13 04:32:19;;;;;;;2.15;0.70;;;;;;;5.11;100.00;100621.16;5095666;28;20032;-70
2023/11/13 04:34:44;;;;;;;5.03;0.93;;;;;;;5.12;100.00;100625.38;5091689;28;20115;-70
2023/11/13 04:37:10;;;;;;;2.08;0.80;;;;;;;5.14;100.00;100618.38;5096092;28;20115;-70
2023/11/13 04:39:36;;;;;;;6.38;1.35;;;;;;;5.13;100.00;100621.88;5096607;28;20487;-70
2023/11/13 04:42:01;;;;;;;4.03;1.20;;;;;;;5.13;100.00;100612.38;5101568;28;20023;-70
2023/11/13 04:44:26;;;;;;;4.47;1.30;;;;;;;5.14;100.00;100621.78;5095657;28;20448;-70
2023/11/13 04:46:52;;;;;;;3.33;1.02;;;;;;;5.12;100.00;100620.22;5095995;28;20094;-70
2023/11/13 04:49:17;;;;;;;4.07;0.80;;;;;;;5.12;100.00;100618.47;5091674;28;20032;-70
2023/11/13 04:51:43;;;;;;;2.15;0.52;;;;;;;5.13;100.00;100616.72;5095999;28;20086;-70
2023/11/13 04:54:09;;;;;;;4.55;0.90;;;;;;;5.10;100.00;100593.69;5101180;28;20028;-70
2023/11/13 04:56:34;;;;;;;3.25;0.80;;;;;;;5.04;100.00;100583.75;5086063;28;20036;-70
2023/11/13 04:59:00;;;;;;;3.53;1.15;;;;;;;5.05;100.00;100585.41;5090332;28;20085;-70
2023/11/13 05:01:25;;;;;;;2.67;1.00;;;;;;;5.08;100.00;100577.47;5090489;28;20016;-70
2023/11/13 05:03:51;;;;;;;3.78;1.58;;;;;;;5.07;100.00;100583.56;5091245;28;20043;-70
2023/11/13 05:06:17;;;;;;;2.70;1.23;;;;;;;5.08;100.00;100580.03;5090844;28;20120;-70
2023/11/13 05:08:46;;;;;;;1.95;1.33;;;;;;;5.03;100.00;100577.78;5090081;28;20081;-70
2023/11/13 05:11:25;;;;;;;5.07;1.02;;;;;;;4.99;100.00;100574.56;5089170;28;20032;-70
2023/11/13 05:13:52;;;;;;;4.35;1.27;;;;;;;4.97;100.00;100573.84;5091160;28;20119;-70
2023/11/13 05:16:22;;;;;;;2.35;1.00;;;;;;;5.05;100.00;100585.41;5090273;28;20036;-70
2023/11/13 05:18:48;;;;;;;5.80;1.08;;;;;;;4.98;100.00;100585.00;5089785;28;20068;-70
2023/11/13 05:21:14;;;;;;;2.13;0.90;;;;;;;5.00;100.00;100571.06;5090448;28;20059;-70
2023/11/13 05:23:40;;;;;;;3.75;1.10;;;;;;;4.98;100.00;100575.50;5090943;28;20047;-70
2023/11/13 05:26:05;;;;;;;3.70;1.08;;;;;;;5.05;100.00;100569.91;5090650;28;20060;-70
2023/11/13 05:28:31;;;;;;;2.10;0.82;;;;;;;5.03;100.00;100571.78;5090484;28;20043;-70
2023/11/13 05:30:56;;;;;;;2.08;0.43;;;;;;;5.04;100.00;100581.19;5090357;28;20138;-70
2023/11/13 05:33:22;;;;;;;3.90;1.02;;;;;;;5.07;100.00;100588.72;5091052;28;20385;-69
2023/11/13 05:35:47;;;;;;;1.55;0.70;;;;;;;5.08;100.00;100592.94;5089441;28;20024;-70
2023/11/13 05:38:14;;;;;;;1.67;0.80;;;;;;;5.10;100.00;100593.69;5091263;28;20035;-70
2023/11/13 05:40:39;;;;;;;2.22;0.65;;;;;;;5.12;100.00;100602.16;5090332;28;20043;-70
2023/11/13 05:43:05;;;;;;;4.32;0.70;;;;;;;5.16;100.00;100606.16;5088897;28;20028;-70
2023/11/13 05:45:30;;;;;;;5.57;1.13;;;;;;;5.21;100.00;100604.06;5089505;28;20028;-70
2023/11/13 05:47:56;;;;;;;3.42;1.10;;;;;;;5.19;100.00;100603.38;5091073;28;20072;-70
2023/11/13 05:50:22;;;;;;;2.30;0.90;;;;;;;5.19;100.00;100609.38;5090744;28;20040;-70
2023/11/13 05:52:48;;;;;;;2.72;1.00;;;;;;;5.16;100.00;100603.59;5088773;28;20056;-70
2023/11/13 05:55:13;;;;;;;3.13;1.10;;;;;;;5.12;100.00;100602.16;5090716;28;20086;-70
2023/11/13 05:57:39;;;;;;;4.25;0.73;;;;;;;5.16;100.00;100599.25;5089199;28;20043;-70
2023/11/13 06:00:05;;;;;;;8.02;1.20;;;;;;;5.19;100.00;100608.53;5090001;28;20517;-70
2023/11/13 06:02:32;;;;;;;4.80;1.02;;;;;;;5.13;100.00;100609.78;5088988;28;20028;-70
2023/11/13 06:04:58;;;;;;;3.33;0.88;;;;;;;5.10;100.00;100619.50;5090798;28;20028;-70
2023/11/13 06:07:24;;;;;;;2.95;0.82;;;;;;;5.07;100.00;100622.28;5089065;28;20032;-70
2023/11/13 06:09:49;;;;;;;3.67;1.42;;;;;;;5.06;100.00;100628.38;5088725;28;20043;-70
2023/11/13 06:12:15;;;;;;;4.20;1.35;;;;;;;5.03;100.00;100618.28;5089211;28;20032;-70
2023/11/13 06:14:40;;;;;;;2.78;0.95;;;;;;;5.09;100.00;100623.00;5089135;28;20039;-70
2023/11/13 06:17:06;;;;;;;3.08;0.70;;;;;;;5.10;100.00;100635.81;5090086;28;20035;-70
2023/11/13 06:19:31;;;;;;;1.63;0.75;;;;;;;5.11;100.00;100636.66;5088011;28;20032;-70
2023/11/13 06:21:57;;;;;;;5.20;0.65;;;;;;;5.09;100.00;100633.34;5090335;28;20038;-70
2023/11/13 06:24:22;;;;;;;2.45;1.10;;;;;;;5.03;100.00;100652.66;5089680;28;20436;-70
2023/11/13 06:26:48;;;;;;;2.83;0.70;;;;;;;5.06;100.00;100665.38;5088524;28;20081;-70
2023/11/13 06:29:14;;;;;;;2.60;0.70;;;;;;;5.07;100.00;100684.28;5088964;28;20410;-70
2023/11/13 06:31:39;;;;;;;2.40;0.65;;;;;;;5.07;100.00;100679.09;5089328;28;20051;-70
2023/11/13 06:34:05;;;;;;;4.13;0.80;;;;;;;5.08;100.00;100665.28;5089696;28;20073;-70
2023/11/13 06:36:33;;;;;;;2.35;1.13;;;;;;;5.06;100.00;100669.72;5087369;28;20398;-70
2023/11/13 06:39:00;;;;;;;1.58;0.50;;;;;;;5.06;100.00;100669.72;5083142;28;20054;-70
2023/11/13 06:41:25;;;;;;;2.63;1.10;;;;;;;5.07;100.00;100666.19;5088403;28;20032;-70
2023/11/13 06:43:52;;;;;;;2.25;0.85;;;;;;;5.06;100.00;100655.03;5087366;28;20034;-70
2023/11/13 06:46:17;;;;;;;5.07;0.93;;;;;;;5.07;100.00;100666.19;5089385;28;20043;-70
2023/11/13 06:48:44;;;;;;;1.33;0.63;;;;;;;5.12;100.00;100679.63;5088680;28;20036;-70
2023/11/13 06:51:16;;;;;;;4.07;0.85;;;;;;;5.15;100.00;100687.16;5088250;28;20399;-70
2023/11/13 06:53:42;;;;;;;2.95;0.60;;;;;;;5.19;100.00;100684.28;5089800;28;20462;-70
2023/11/13 06:56:09;;;;;;;9.45;1.20;;;;;;;5.24;100.00;100678.75;5088082;28;20035;-70
2023/11/13 06:58:36;;;;;;;1.95;0.90;;;;;;;5.26;100.00;100672.56;5085885;28;20032;-70
2023/11/13 07:01:02;;;;;;;4.45;1.13;;;;;;;5.31;100.00;100674.84;5089444;28;20052;-70
2023/11/13 07:03:28;;;;;;;3.67;1.00;;;;;;;5.35;100.00;100671.09;5088874;28;20113;-71
2023/11/13 07:05:54;;;;;;;2.70;0.88;;;;;;;5.34;100.00;100674.63;5087873;28;20036;-70
2023/11/13 07:08:19;;;;;;;3.33;0.93;;;;;;;5.33;100.00;100676.38;5093908;28;20102;-71
2023/11/13 07:10:45;;;;;;;5.45;1.08;;;;;;;5.32;100.00;100673.91;5091738;28;20043;-70
2023/11/13 07:13:13;;;;;;;6.50;0.88;;;;;;;5.31;100.00;100695.50;5091415;28;20023;-70
2023/11/13 07:15:40;;;;;;;2.42;0.90;;;;;;;5.28;100.00;100698.28;5093332;28;20032;-70
2023/11/13 07:18:07;;;;;;;1.60;0.77;;;;;;;5.25;100.00;100708.84;5093588;28;20032;-70
2023/11/13 07:20:32;;;;;;;2.78;1.42;;;;;;;5.24;100.00;100717.50;5093355;28;20043;-70
2023/11/13 07:22:58;;;;;;;3.00;0.93;;;;;;;5.22;100.00;100717.63;5091509;28;20036;-71
2023/11/13 07:25:24;;;;;;;2.72;0.65;;;;;;;5.26;100.00;100728.56;5091279;28;20107;-70
2023/11/13 07:27:49;;;;;;;3.05;0.77;;;;;;;5.34;100.00;100731.47;5091225;28;20035;-70
2023/11/13 07:30:15;;;;;;;4.63;1.20;;;;;;;5.41;100.00;100745.63;5087490;28;20453;-71
2023/11/13 07:32:41;;;;;;;3.15;0.73;;;;;;;5.47;100.00;100740.03;5090897;28;20036;-70
2023/11/13 07:35:07;;;;;;;5.43;0.80;;;;;;;5.51;100.00;100744.06;5090697;28;20475;-70
2023/11/13 07:37:33;;;;;;;4.22;1.20;;;;;;;5.55;100.00;100758.44;5089966;28;20028;-71
2023/11/13 07:39:59;;;;;;;2.38;0.77;;;;;;;5.55;100.00;100753.28;5090670;28;20540;-71
2023/11/13 07:42:25;;;;;;;3.28;0.90;;;;;;;5.58;100.00;100739.31;5093102;28;20025;-71
2023/11/13 07:44:51;;;;;;;4.60;1.33;;;;;;;5.61;100.00;100739.09;5090248;28;20145;-71
2023/11/13 07:47:18;;;;;;;3.63;0.90;;;;;;;5.67;100.00;100731.72;5090118;28;20929;-70
2023/11/13 07:49:44;;;;;;;2.95;1.10;;;;;;;5.80;100.00;100739.44;5091212;28;20036;-70
2023/11/13 07:52:15;;;;;;;3.33;0.90;;;;;;;5.87;100.00;100745.84;5094948;28;20034;-71
2023/11/13 07:54:40;;;;;;;1.73;0.80;;;;;;;5.93;100.00;100736.88;5090922;28;20036;-71
2023/11/13 07:57:08;;;;;;;4.82;1.27;;;;;;;5.97;100.00;100733.13;5090407;28;20036;-70
2023/11/13 07:59:35;;;;;;;2.85;1.08;;;;;;;6.03;100.00;100735.28;5089453;28;20361;-70
2023/11/13 08:02:00;;;;;;;1.92;0.77;;;;;;;6.16;100.00;100755.91;5089187;28;20027;-70
2023/11/13 08:04:26;;;;;;;2.15;0.88;;;;;;;6.20;100.00;100773.69;5090379;28;20032;-71
2023/11/13 08:06:51;;;;;;;3.83;0.90;;;;;;;6.18;100.00;100775.56;5087637;28;20027;-71
2023/11/13 08:09:18;;;;;;;2.67;0.70;;;;;;;6.18;100.00;100778.16;5087814;28;20039;-70
2023/11/13 08:11:45;;;;;;;5.15;1.17;;;;;;;6.24;100.00;100782.91;5093601;28;20032;-70
2023/11/13 08:14:10;;;;;;;2.97;0.95;;;;;;;6.29;100.00;100787.75;5090374;28;20460;-70
2023/11/13 08:16:36;;;;;;;4.97;1.08;;;;;;;6.32;100.00;100782.34;5090029;28;20184;-71
2023/11/13 08:19:01;;;;;;;2.28;0.75;;;;;;;6.35;100.00;100784.72;5087880;28;20024;-70
2023/11/13 08:21:28;;;;;;;3.80;1.15;;;;;;;6.33;100.00;100779.66;5091314;28;20387;-71
2023/11/13 08:23:53;;;;;;;2.90;0.68;;;;;;;6.29;100.00;100773.06;5092612;28;20024;-71
2023/11/13 08:26:19;;;;;;;2.95;0.80;;;;;;;6.27;100.00;100772.34;5087759;28;20600;-71
2023/11/13 08:28:45;;;;;;;5.10;1.35;;;;;;;6.33;100.00;100764.13;5091589;28;20028;-71
2023/11/13 08:31:16;;;;;;;4.38;1.15;;;;;;;6.45;100.00;100759.84;5092362;28;20399;-71
2023/11/13 08:33:43;;;;;;;3.88;1.10;;;;;;;6.61;100.00;100762.16;5091821;28;20028;-71
2023/11/13 08:36:11;;;;;;;2.72;0.90;;;;;;;6.76;100.00;100771.38;5091835;28;20497;-71
2023/11/13 08:38:37;;;;;;;4.65;1.10;;;;;;;6.80;100.00;100772.78;5091371;28;20100;-71
2023/11/13 08:41:03;;;;;;;2.50;1.27;;;;;;;6.80;100.00;100777.97;5091351;28;20530;-71
2023/11/13 08:43:31;;;;;;;3.88;1.15;;;;;;;6.82;100.00;100783.88;5090181;28;20161;-70
2023/11/13 08:45:59;;;;;;;2.85;1.13;;;;;;;6.87;100.00;100789.53;5091083;28;20028;-70
2023/11/13 08:48:24;;;;;;;5.75;0.98;;;;;;;6.90;100.00;100797.09;5091803;28;20054;-70
2023/11/13 08:50:53;;;;;;;3.42;1.00;;;;;;;6.92;100.00;100784.84;5091452;28;20036;-70
2023/11/13 08:53:19;;;;;;;3.95;0.98;;;;;;;7.02;100.00;100779.00;5091481;28;20092;-70
2023/11/13 08:55:44;;;;;;;5.05;1.38;;;;;;;7.10;100.00;100779.22;5091536;28;20032;-70
2023/11/13 08:58:10;;;;;;;3.33;0.82;;;;;;;7.20;100.00;100781.03;5089532;28;20028;-69
2023/11/13 09:00:43;;;;;;;2.35;0.80;;;;;;;7.22;100.00;100771.38;5090907;28;20060;-70
2023/11/13 09:03:09;;;;;;;3.28;1.10;;;;;;;7.26;100.00;100774.56;5090851;28;20093;-69
2023/11/13 09:05:35;;;;;;;1.90;0.93;;;;;;;7.29;100.00;100784.69;5099104;28;20483;-69
2023/11/13 09:08:03;;;;;;;3.58;1.08;;;;;;;7.37;100.00;100784.13;5090974;28;20066;-69
2023/11/13 09:10:30;;;;;;;4.22;0.98;;;;;;;7.46;100.00;100783.41;5105809;28;20579;-69
2023/11/13 09:12:59;;;;;;;3.72;1.45;;;;;;;7.55;100.00;100778.38;5100985;28;20036;-70
2023/11/13 09:15:29;;;;;;;5.90;1.25;;;;;;;7.61;100.00;100772.69;5102833;27;20030;-69
2023/11/13 09:17:58;;;;;;;2.75;0.88;;;;;;;7.63;100.00;100775.97;5105828;28;20020;-70
2023/11/13 09:20:24;;;;;;;3.33;0.88;;;;;;;7.62;100.00;100784.69;5106417;28;20126;-69
2023/11/13 09:22:51;;;;;;;2.00;0.80;;;;;;;7.62;100.00;100791.66;5102944;28;20036;-69
2023/11/13 09:25:19;;;;;;;3.83;0.80;;;;;;;7.64;100.00;100784.59;5103668;28;20425;-69
2023/11/13 09:27:46;;;;;;;3.42;1.35;;;;;;;7.70;100.00;100791.06;5100605;28;20036;-70
2023/11/13 09:30:12;;;;;;;4.60;1.70;;;;;;;7.80;100.00;100798.03;5096485;28;20103;-70
2023/11/13 09:32:45;;;;;;;7.13;1.77;;;;;;;7.85;100.00;100810.66;5101519;28;20063;-69
2023/11/13 09:35:19;;;;;;;6.25;1.42;;;;;;;7.84;100.00;100815.00;5098378;28;20380;-69
2023/11/13 09:37:48;;;;;;;6.70;1.52;;;;;;;7.84;100.00;100814.19;5089512;28;20097;-69
2023/11/13 09:40:19;;;;;;;8.77;1.20;;;;;;;7.80;100.00;100815.38;5090860;28;20039;-69
2023/11/13 09:42:52;;;;;;;3.40;1.08;;;;;;;7.79;100.00;100816.31;5090644;28;20420;-69
2023/11/13 09:45:22;;;;;;;3.38;1.23;;;;;;;7.80;100.00;100817.97;5097680;28;20024;-69
2023/11/13 09:47:49;;;;;;;5.18;0.88;;;;;;;7.86;100.00;100820.09;5090440;28;20032;-70
2023/11/13 09:50:16;;;;;;;2.42;0.95;;;;;;;7.85;100.00;100815.84;5094507;28;20040;-69
2023/11/13 09:52:48;;;;;;;3.47;0.80;;;;;;;7.86;100.00;100825.28;5093127;28;20039;-69
2023/11/13 09:55:18;;;;;;;4.57;1.38;;;;;;;7.90;100.00;100830.09;5093793;28;20032;-69
2023/11/13 09:57:46;;;;;;;1.90;0.73;;;;;;;7.93;100.00;100827.28;5090058;28;20112;-69
2023/11/13 10:00:16;;;;;;;3.28;1.02;;;;;;;8.00;100.00;100835.41;5092529;28;20028;-69
2023/11/13 10:02:46;;;;;;;2.10;0.93;;;;;;;8.03;100.00;100832.59;5091886;28;20020;-69
2023/11/13 10:05:16;;;;;;;4.18;1.08;;;;;;;8.07;100.00;100833.97;5095669;28;20347;-69
2023/11/13 10:07:55;;;;;;;5.35;0.77;;;;;;;8.07;100.00;100815.81;5099377;28;20482;-69
2023/11/13 10:10:22;;;;;;;5.90;0.90;;;;;;;8.12;100.00;100818.88;5090544;28;20039;-69
2023/11/13 10:12:52;;;;;;;5.47;1.42;;;;;;;8.16;100.00;100816.84;5099461;28;20024;-69
2023/11/13 10:15:26;;;;;;;2.88;1.25;;;;;;;8.13;100.00;100817.91;5100318;28;20032;-70
2023/11/13 10:18:12;;;;;;;5.55;1.25;;;;;;;8.17;100.00;100819.34;5089075;28;20675;-69
2023/11/13 10:20:45;;;;;;;4.03;1.10;;;;;;;8.17;100.00;100811.53;5086387;28;20400;-71
2023/11/13 10:23:13;;;;;;;2.85;0.80;;;;;;;8.18;100.00;100810.59;5083154;28;20032;-70
2023/11/13 10:25:50;;;;;;;5.20;0.80;;;;;;;8.23;100.00;100808.47;5088735;28;20043;-70
2023/11/13 10:28:21;;;;;;;5.68;1.15;;;;;;;8.38;100.00;100809.06;5086646;28;20136;-71
2023/11/13 10:31:00;;;;;;;2.45;0.80;;;;;;;8.56;98.78;100810.19;5090558;28;20055;-71
2023/11/13 10:33:28;;;;;;;5.50;1.05;;;;;;;8.70;100.00;100814.28;5089647;28;20040;-71
2023/11/13 10:36:04;;;;;;;3.85;1.20;;;;;;;8.84;100.00;100807.97;5086820;28;20562;-71
2023/11/13 10:38:43;;;;;;;4.53;1.42;;;;;;;8.92;98.77;100803.78;5086732;28;20083;-70
2023/11/13 10:41:12;;;;;;;4.10;1.30;;;;;;;8.95;98.45;100800.13;5093786;28;20032;-70
2023/11/13 10:43:39;;;;;;;3.70;1.42;;;;;;;9.03;98.04;100789.88;5095069;28;20419;-70
2023/11/13 10:46:06;;;;;;;5.13;1.00;;;;;;;9.17;99.08;100796.56;5094038;28;20024;-70
2023/11/13 10:48:39;;;;;;;3.85;2.00;;;;;;;9.38;98.93;100807.78;5095082;28;20020;-71
2023/11/13 10:51:05;;;;;;;5.60;1.70;;;;;;;9.51;96.08;100808.38;5094916;28;20356;-71
2023/11/13 10:53:40;;;;;;;7.57;2.05;;;;;;;9.58;95.90;100809.50;5092724;28;20039;-72
2023/11/13 10:56:07;;;;;;;3.83;1.13;;;;;;;9.68;97.53;100808.72;5091128;28;20024;-71
2023/11/13 10:58:32;;;;;;;3.60;1.75;;;;;;;9.69;97.17;100813.81;5093372;28;20020;-70
2023/11/13 11:01:01;;;;;;;4.68;1.40;;;;;;;9.67;98.30;100791.47;5093977;28;20119;-70
2023/11/13 11:03:35;;;;;;;8.55;2.25;;;;;;;9.69;98.76;100779.16;5090616;28;20032;-70
2023/11/13 11:06:09;;;;;;;4.65;2.10;;;;;;;9.75;97.24;100782.06;5096680;28;20479;-70
2023/11/13 11:08:37;;;;;;;4.47;2.03;;;;;;;9.79;99.16;100767.84;5093868;28;20036;-70
2023/11/13 11:11:03;;;;;;;2.92;1.70;;;;;;;9.82;97.42;100754.56;5093287;28;20491;-70
2023/11/13 11:13:32;;;;;;;5.55;1.42;;;;;;;9.84;96.67;100757.03;5093094;28;20046;-69
2023/11/13 11:16:16;;;;;;;4.68;1.20;;;;;;;9.80;97.18;100753.03;5093179;28;20110;-69
2023/11/13 11:19:22;;;;;;;4.25;1.55;;;;;;;9.79;99.58;100764.41;5092449;28;20040;-68
2023/11/13 11:22:00;;;;;;;3.33;1.25;;;;;;;9.80;98.83;100766.88;5030986;28;20045;-68
2023/11/13 11:24:28;;;;;;;3.47;1.40;;;;;;;9.79;99.29;100762.63;5029075;28;20052;-68
2023/11/13 11:26:58;;;;;;;4.85;1.40;;;;;;;9.80;99.66;100755.66;5030871;28;20140;-69